Time;durP1;ratioP1;P1;durP2;ratioP2;P2;SDS_P1;SDS_P2;PMS_P1;PMS_P2;Temp;Humidity;BMP_temperature;BMP_pressure;BME280_temperature;BME280_humidity;BME280_pressure;Samples;Min_cycle;Max_cycle;Signal;HPM_P1;HPM_P2
2021/07/03 00:00:15;;;;;;;11.73;7.00;;;;;;;-144.99;89.68;52386.94;5066689;28;20615;-64
2021/07/03 00:02:41;;;;;;;14.17;7.63;;;;;;;-144.99;89.59;52391.03;5063643;28;20213;-64
2021/07/03 00:05:09;;;;;;;9.73;7.60;;;;;;;-144.99;89.83;52403.25;5063996;28;20197;-62
2021/07/03 00:07:36;;;;;;;9.87;7.30;;;;;;;-144.99;89.76;52378.78;5062330;28;20217;-64
2021/07/03 00:10:05;;;;;;;10.17;8.60;;;;;;;-144.99;90.12;52395.09;5062658;28;20228;-59
2021/07/03 00:12:32;;;;;;;10.43;6.83;;;;;;;-144.99;90.49;52342.09;5059954;28;20799;-59
2021/07/03 00:14:58;;;;;;;11.70;10.57;;;;;;;-144.99;90.44;52386.94;5064240;28;20209;-60
2021/07/03 00:17:25;;;;;;;14.07;8.63;;;;;;;-144.99;90.30;52366.56;5064622;28;20228;-58
2021/07/03 00:19:51;;;;;;;8.57;6.97;;;;;;;-144.99;90.38;52374.72;5063076;28;20225;-59
2021/07/03 00:22:18;;;;;;;10.87;7.40;;;;;;;-144.99;90.10;52370.63;5064625;28;20196;-58
2021/07/03 00:24:45;;;;;;;8.77;7.67;;;;;;;-144.99;90.33;52378.78;5065367;28;20815;-59
2021/07/03 00:27:12;;;;;;;12.37;7.17;;;;;;;-144.99;90.49;52325.81;5065205;28;20231;-58
2021/07/03 00:29:39;;;;;;;9.03;6.83;;;;;;;-144.99;90.18;52386.94;5066083;28;20233;-58
2021/07/03 00:32:06;;;;;;;7.33;6.53;;;;;;;-144.99;90.37;52407.31;5067288;28;20219;-58
2021/07/03 00:34:32;;;;;;;8.67;6.50;;;;;;;-144.99;90.53;52374.72;5062938;28;20583;-58
2021/07/03 00:36:59;;;;;;;7.20;6.13;;;;;;;-144.99;90.27;52370.63;5066989;28;20232;-59
2021/07/03 00:39:28;;;;;;;12.97;7.87;;;;;;;-144.99;90.33;52362.50;5068680;28;20249;-63
2021/07/03 00:41:55;;;;;;;10.23;7.43;;;;;;;-144.99;90.30;52403.25;5071842;28;20216;-62
2021/07/03 00:44:31;;;;;;;10.43;7.43;;;;;;;-144.99;90.33;52415.47;5072398;28;20223;-61
2021/07/03 00:46:59;;;;;;;11.60;8.03;;;;;;;-144.99;90.08;52395.09;5069014;28;20203;-61
2021/07/03 00:49:26;;;;;;;11.37;8.27;;;;;;;-144.99;90.09;52399.19;5060053;28;20307;-61
2021/07/03 00:51:53;;;;;;;10.20;8.40;;;;;;;-144.99;90.19;52382.88;5065240;28;20212;-61
2021/07/03 00:54:21;;;;;;;12.83;8.33;;;;;;;-144.99;90.55;52395.09;5083032;28;20222;-61
2021/07/03 00:56:48;;;;;;;10.50;9.00;;;;;;;-144.99;91.02;52407.31;5067307;28;20604;-61
2021/07/03 00:59:15;;;;;;;9.33;7.33;;;;;;;-144.99;90.91;52366.56;5071830;28;20232;-61
2021/07/03 01:01:43;;;;;;;11.83;6.77;;;;;;;-144.99;90.74;52388.97;5068982;28;20346;-59
2021/07/03 01:04:09;;;;;;;9.70;7.80;;;;;;;-144.99;91.19;52358.41;5065919;28;20212;-59
2021/07/03 01:06:36;;;;;;;13.00;9.40;;;;;;;-144.99;91.83;52370.63;5070165;28;20211;-58
2021/07/03 01:09:03;;;;;;;10.57;9.30;;;;;;;-144.99;92.16;52403.25;5071213;28;20229;-58
2021/07/03 01:11:32;;;;;;;9.87;8.30;;;;;;;-144.99;92.82;52407.31;5070926;28;20260;-59
2021/07/03 01:13:58;;;;;;;12.93;9.63;;;;;;;-144.99;92.89;52403.25;5071869;28;20301;-61
2021/07/03 01:16:25;;;;;;;15.90;14.30;;;;;;;-144.99;93.26;52358.41;5070661;28;20222;-63
2021/07/03 01:18:53;;;;;;;16.17;12.97;;;;;;;-144.99;93.59;52354.34;5067810;28;20234;-63
2021/07/03 01:21:20;;;;;;;15.47;13.93;;;;;;;-144.99;93.52;52348.22;5069519;28;20244;-62
2021/07/03 01:23:48;;;;;;;16.90;14.37;;;;;;;-144.99;93.51;52331.91;5087064;28;20210;-63
2021/07/03 01:26:15;;;;;;;16.07;13.90;;;;;;;-144.99;94.11;52376.75;5067512;28;20240;-62
2021/07/03 01:28:42;;;;;;;14.73;10.93;;;;;;;-144.99;93.75;52362.50;5068171;28;20329;-63
2021/07/03 01:31:08;;;;;;;12.97;11.53;;;;;;;-144.99;93.71;52378.78;5067022;28;20629;-63
2021/07/03 01:33:35;;;;;;;15.50;10.63;;;;;;;-144.99;93.40;52423.63;5066920;28;20210;-63
2021/07/03 01:36:02;;;;;;;17.37;11.83;;;;;;;-144.99;93.57;52407.31;5066548;28;20216;-63
2021/07/03 01:38:29;;;;;;;14.77;11.03;;;;;;;-144.99;93.47;52421.59;5065448;28;20227;-62
2021/07/03 01:40:57;;;;;;;13.53;11.17;;;;;;;-144.99;93.51;52372.69;5065905;28;20219;-63
2021/07/03 01:43:26;;;;;;;13.03;10.30;;;;;;;-144.99;93.60;52380.84;5063497;28;20657;-60
2021/07/03 01:45:54;;;;;;;16.13;9.87;;;;;;;-144.99;93.80;52370.63;5062913;28;20201;-60
2021/07/03 01:48:25;;;;;;;12.17;10.87;;;;;;;-144.99;93.61;52388.97;5059079;28;20210;-61
2021/07/03 01:50:52;;;;;;;14.00;9.37;;;;;;;-144.99;93.73;52366.56;5065711;28;20200;-60
2021/07/03 01:53:19;;;;;;;12.27;9.20;;;;;;;-144.99;93.38;52378.78;5068418;28;20202;-59
2021/07/03 01:55:46;;;;;;;11.53;10.03;;;;;;;-144.99;93.36;52407.31;5066144;28;20212;-59
2021/07/03 01:58:17;;;;;;;11.23;9.70;;;;;;;-144.99;93.11;52378.78;5066212;28;20242;-59
2021/07/03 02:00:44;;;;;;;10.93;9.83;;;;;;;-144.99;93.21;52362.50;5062988;28;20280;-59
2021/07/03 02:03:11;;;;;;;10.47;9.10;;;;;;;-144.99;93.26;52382.88;5067260;28;20217;-59
2021/07/03 02:05:37;;;;;;;10.97;8.70;;;;;;;-144.99;93.89;52350.25;5062208;28;20260;-60
2021/07/03 02:08:05;;;;;;;15.90;10.50;;;;;;;-144.99;94.34;52338.03;5070785;28;20232;-59
2021/07/03 02:10:31;;;;;;;12.10;9.00;;;;;;;-144.99;94.66;52380.84;5069119;28;20234;-59
2021/07/03 02:12:58;;;;;;;11.23;8.63;;;;;;;-144.99;94.51;52374.72;5067712;28;20206;-59
2021/07/03 02:15:25;;;;;;;10.10;8.73;;;;;;;-144.99;94.28;52384.91;5070465;28;20889;-59
2021/07/03 02:17:52;;;;;;;11.80;9.07;;;;;;;-144.99;94.20;52399.19;5072714;28;20237;-59
2021/07/03 02:20:19;;;;;;;12.90;8.53;;;;;;;-144.99;93.93;52382.88;5070433;28;20229;-59
2021/07/03 02:22:45;;;;;;;12.10;9.00;;;;;;;-144.99;93.91;52386.94;5075070;28;20675;-59
2021/07/03 02:25:13;;;;;;;16.53;10.17;;;;;;;-144.99;93.87;52386.94;5070117;28;20675;-61
2021/07/03 02:27:40;;;;;;;11.40;9.27;;;;;;;-144.99;93.91;52403.25;5065103;28;20580;-59
2021/07/03 02:30:09;;;;;;;8.80;7.87;;;;;;;-144.99;93.99;52395.09;5068043;28;20221;-60
2021/07/03 02:32:37;;;;;;;11.10;8.20;;;;;;;-144.99;93.87;52350.25;5064592;28;20211;-60
2021/07/03 02:35:05;;;;;;;11.30;8.17;;;;;;;-144.99;93.73;52397.13;5069112;28;20645;-60
2021/07/03 02:37:33;;;;;;;15.13;8.80;;;;;;;-144.99;93.63;52366.56;5064545;28;20316;-60
2021/07/03 02:39:59;;;;;;;9.40;8.50;;;;;;;-144.99;93.47;52425.66;5063650;28;20222;-61
2021/07/03 02:42:26;;;;;;;11.63;8.50;;;;;;;-144.99;93.41;52391.03;5063685;28;20211;-59
2021/07/03 02:44:52;;;;;;;11.07;9.00;;;;;;;-144.99;93.19;52403.25;5064756;28;20222;-60
2021/07/03 02:47:21;;;;;;;9.97;8.37;;;;;;;-144.99;93.35;52415.47;5064092;28;20200;-58
2021/07/03 02:49:49;;;;;;;12.83;10.20;;;;;;;-144.99;93.48;52386.94;5063902;28;20225;-59
2021/07/03 02:52:15;;;;;;;13.73;11.23;;;;;;;-144.99;93.97;52384.91;5064044;28;20658;-60
2021/07/03 02:54:42;;;;;;;10.40;8.17;;;;;;;-144.99;94.24;52384.91;5067762;28;20210;-60
2021/07/03 02:57:08;;;;;;;12.40;9.70;;;;;;;-144.99;94.53;52382.88;5064039;28;20228;-60
2021/07/03 02:59:35;;;;;;;10.83;8.93;;;;;;;-144.99;94.57;52366.56;5061723;28;20714;-60
2021/07/03 03:02:02;;;;;;;11.53;8.57;;;;;;;-144.99;94.51;52407.31;5064287;28;20216;-60
2021/07/03 03:04:28;;;;;;;13.17;9.07;;;;;;;-144.99;94.48;52354.34;5062636;28;20209;-60
2021/07/03 03:06:56;;;;;;;11.37;8.47;;;;;;;-144.99;94.74;52366.56;5063367;28;20577;-60
2021/07/03 03:09:23;;;;;;;12.40;9.40;;;;;;;-144.99;94.76;52356.38;5064868;28;20694;-60
2021/07/03 03:11:49;;;;;;;12.60;9.10;;;;;;;-144.99;94.58;52346.19;5065234;28;20296;-58
2021/07/03 03:14:16;;;;;;;11.10;9.70;;;;;;;-144.99;94.53;52391.03;5062187;28;20209;-58
2021/07/03 03:16:42;;;;;;;12.80;8.43;;;;;;;-144.99;94.49;52370.63;5063922;28;20212;-58
2021/07/03 03:19:09;;;;;;;17.40;8.43;;;;;;;-144.99;94.42;52354.34;5063462;28;20229;-57
2021/07/03 03:21:36;;;;;;;12.60;7.27;;;;;;;-144.99;94.24;52386.94;5064133;28;20540;-58
2021/07/03 03:24:04;;;;;;;10.37;8.60;;;;;;;-144.99;94.24;52399.19;5064834;28;20205;-58
2021/07/03 03:26:31;;;;;;;10.43;9.33;;;;;;;-144.99;94.57;52399.19;5064892;28;20204;-58
2021/07/03 03:28:57;;;;;;;11.80;8.97;;;;;;;-144.99;94.40;52391.03;5065647;28;20225;-58
2021/07/03 03:31:24;;;;;;;10.73;9.53;;;;;;;-144.99;94.37;52362.50;5065348;28;20471;-57
2021/07/03 03:33:50;;;;;;;12.03;10.07;;;;;;;-144.99;94.34;52362.50;5064443;28;20217;-57
2021/07/03 03:36:17;;;;;;;10.00;8.73;;;;;;;-144.99;94.17;52407.31;5064117;28;20217;-59
2021/07/03 03:38:44;;;;;;;11.77;9.70;;;;;;;-144.99;94.41;52378.78;5064690;28;20225;-59
2021/07/03 03:41:12;;;;;;;10.27;8.73;;;;;;;-144.99;94.51;52370.63;5063726;28;20220;-59
2021/07/03 03:43:39;;;;;;;10.63;9.27;;;;;;;-144.99;94.45;52386.94;5061706;28;20213;-59
2021/07/03 03:46:05;;;;;;;13.53;9.97;;;;;;;-144.99;94.45;52391.03;5063801;28;20206;-59
2021/07/03 03:48:32;;;;;;;14.20;11.20;;;;;;;-144.99;94.55;52329.88;5063149;28;20293;-59
2021/07/03 03:50:59;;;;;;;10.50;8.93;;;;;;;-144.99;94.75;52354.34;5064999;28;20205;-59
2021/07/03 03:53:25;;;;;;;12.57;9.23;;;;;;;-144.99;94.57;52362.50;5065459;28;20210;-60
2021/07/03 03:55:52;;;;;;;12.10;9.23;;;;;;;-144.99;94.53;52362.50;5065515;28;20234;-62
2021/07/03 03:58:20;;;;;;;12.57;10.57;;;;;;;-144.99;94.75;52376.75;5065744;28;20234;-61
2021/07/03 04:00:46;;;;;;;14.03;10.10;;;;;;;-144.99;94.65;52384.91;5065093;28;20233;-60
2021/07/03 04:03:13;;;;;;;13.97;12.83;;;;;;;-144.99;94.88;52338.03;5065164;28;20201;-59
2021/07/03 04:05:40;;;;;;;13.87;10.77;;;;;;;-144.99;94.74;52358.41;5064422;28;20220;-60
2021/07/03 04:08:06;;;;;;;14.67;13.27;;;;;;;-144.99;94.90;52423.63;5075054;22;20354;-63
2021/07/03 04:10:33;;;;;;;16.83;10.20;;;;;;;-144.99;94.55;52386.94;5085533;28;20236;-62
2021/07/03 04:13:00;;;;;;;13.60;8.60;;;;;;;-144.99;94.74;52376.75;5090969;28;20282;-62
2021/07/03 04:15:28;;;;;;;15.97;11.50;;;;;;;-144.99;94.73;52344.16;5091421;28;20211;-62
2021/07/03 04:17:54;;;;;;;12.57;10.50;;;;;;;-144.99;95.43;52338.03;5086987;28;20236;-64
2021/07/03 04:20:21;;;;;;;15.40;13.00;;;;;;;-144.99;95.84;52374.72;5081282;28;20248;-64
2021/07/03 04:22:48;;;;;;;14.77;12.47;;;;;;;-144.99;95.65;52374.72;5085474;28;20204;-64
2021/07/03 04:25:16;;;;;;;19.00;13.23;;;;;;;-144.99;95.83;52399.19;5086928;28;20217;-64
2021/07/03 04:27:43;;;;;;;12.00;10.80;;;;;;;-144.99;95.91;52399.19;5089211;28;20242;-64
2021/07/03 04:30:11;;;;;;;10.30;9.27;;;;;;;-144.99;95.68;52362.50;5088288;28;20238;-64
2021/07/03 04:32:40;;;;;;;19.43;11.80;;;;;;;-144.99;96.17;52313.56;5084885;28;20668;-64
2021/07/03 04:35:08;;;;;;;15.30;12.50;;;;;;;-144.99;96.50;52342.09;5085478;28;20215;-61
2021/07/03 04:37:34;;;;;;;11.60;10.10;;;;;;;-144.99;96.71;52380.84;5087165;28;20211;-62
2021/07/03 04:40:01;;;;;;;16.20;13.00;;;;;;;-144.99;97.25;52350.25;5088017;28;20787;-61
2021/07/03 04:42:27;;;;;;;17.40;10.67;;;;;;;-144.99;97.41;52391.03;5085921;28;20567;-61
2021/07/03 04:44:54;;;;;;;13.43;10.37;;;;;;;-144.99;97.50;52382.88;5079562;28;20686;-61
2021/07/03 04:47:20;;;;;;;17.87;13.20;;;;;;;-144.99;97.79;52378.78;5077365;28;20206;-61
2021/07/03 04:49:48;;;;;;;14.63;13.13;;;;;;;-144.99;98.13;52354.34;5085693;28;20244;-61
2021/07/03 04:52:15;;;;;;;13.77;12.37;;;;;;;-144.99;98.45;52350.25;5085246;28;20212;-61
2021/07/03 04:54:41;;;;;;;19.60;11.73;;;;;;;-144.99;98.44;52321.72;5086725;28;20218;-60
2021/07/03 04:57:08;;;;;;;13.80;10.93;;;;;;;-144.99;98.72;52333.94;5082703;28;20204;-61
2021/07/03 04:59:36;;;;;;;16.73;12.20;;;;;;;-144.99;98.37;52366.56;5087711;28;20221;-60
2021/07/03 05:02:03;;;;;;;12.77;11.50;;;;;;;-144.99;97.74;52346.19;5086987;28;20215;-60
2021/07/03 05:04:29;;;;;;;16.83;11.10;;;;;;;-144.99;97.48;52366.56;5082716;28;20634;-60
2021/07/03 05:06:57;;;;;;;14.57;9.63;;;;;;;-144.99;97.31;52342.09;5080918;28;20237;-61
2021/07/03 05:09:24;;;;;;;15.73;10.90;;;;;;;-144.99;96.82;52313.56;5085687;28;20238;-60
2021/07/03 05:11:51;;;;;;;9.67;7.63;;;;;;;-144.99;95.48;52327.84;5083574;28;20571;-61
2021/07/03 05:14:18;;;;;;;8.27;7.37;;;;;;;-144.99;95.49;52315.59;5084205;28;20215;-61
2021/07/03 05:16:45;;;;;;;11.63;8.70;;;;;;;-144.99;94.70;52350.25;5087223;28;20217;-61
2021/07/03 05:19:12;;;;;;;11.43;8.60;;;;;;;-144.99;94.78;52315.59;5079431;28;20235;-61
2021/07/03 05:21:38;;;;;;;11.40;9.00;;;;;;;-144.99;94.50;52325.81;5084050;28;20461;-60
2021/07/03 05:24:06;;;;;;;14.40;9.97;;;;;;;-144.99;93.99;52317.66;5087668;28;20793;-61
2021/07/03 05:26:33;;;;;;;20.70;8.73;;;;;;;-144.99;93.94;52350.25;5084371;28;20296;-61
2021/07/03 05:29:00;;;;;;;12.60;9.00;;;;;;;-144.99;93.57;52323.75;5081680;28;20228;-60
2021/07/03 05:31:27;;;;;;;14.37;13.13;;;;;;;-144.99;93.52;52309.50;5086163;28;20208;-60
2021/07/03 05:33:53;;;;;;;11.17;8.73;;;;;;;-144.99;93.64;52319.69;5087178;28;20584;-60
2021/07/03 05:36:20;;;;;;;13.27;7.93;;;;;;;-144.99;93.42;52325.81;5085206;28;20211;-61
2021/07/03 05:38:48;;;;;;;17.50;7.47;;;;;;;-144.99;93.24;52354.34;5087317;28;20224;-61
2021/07/03 05:41:17;;;;;;;14.73;8.77;;;;;;;-144.99;92.91;52317.66;5080609;28;20615;-61
2021/07/03 05:43:44;;;;;;;11.17;8.33;;;;;;;-144.99;92.94;52309.50;5088084;28;20625;-61
2021/07/03 05:46:12;;;;;;;11.67;8.43;;;;;;;-144.99;92.21;52325.81;5084169;28;20243;-62
2021/07/03 05:48:41;;;;;;;10.73;7.23;;;;;;;-144.99;92.18;52338.03;5084608;28;20228;-61
2021/07/03 05:51:08;;;;;;;12.13;8.33;;;;;;;-144.99;91.26;52325.81;5083380;28;20201;-60
2021/07/03 05:53:35;;;;;;;12.13;11.03;;;;;;;-144.99;90.91;52362.50;5086250;28;20573;-60
2021/07/03 05:56:02;;;;;;;15.70;8.63;;;;;;;-144.99;89.56;52264.66;5084257;28;20658;-61
2021/07/03 05:58:30;;;;;;;11.43;7.63;;;;;;;-144.99;88.90;52280.97;5085589;28;20216;-64
2021/07/03 06:00:56;;;;;;;10.13;8.17;;;;;;;-144.99;88.53;52297.25;5083495;28;20215;-63
2021/07/03 06:03:23;;;;;;;13.13;6.70;;;;;;;-144.99;87.73;52301.34;5086360;28;20196;-64
2021/07/03 06:05:49;;;;;;;10.70;8.43;;;;;;;-144.99;87.41;52329.88;5081927;28;20215;-63
2021/07/03 06:08:16;;;;;;;9.60;8.50;;;;;;;-144.99;87.25;52276.88;5085695;28;20196;-64
2021/07/03 06:10:43;;;;;;;12.10;8.97;;;;;;;-144.99;86.82;52319.69;5081871;28;20567;-63
2021/07/03 06:13:09;;;;;;;11.77;8.53;;;;;;;-144.99;86.36;52307.47;5085427;28;20220;-63
2021/07/03 06:15:37;;;;;;;13.67;9.47;;;;;;;-144.99;85.95;52289.13;5084821;28;20290;-63
2021/07/03 06:18:04;;;;;;;11.37;10.47;;;;;;;-144.99;85.95;52295.22;5083453;28;20219;-63
2021/07/03 06:20:31;;;;;;;19.20;17.53;;;;;;;-144.99;85.35;52319.69;5086085;28;20244;-64
2021/07/03 06:22:57;;;;;;;15.13;13.90;;;;;;;-144.99;84.79;52313.56;5084027;28;20224;-64
2021/07/03 06:25:24;;;;;;;15.57;14.50;;;;;;;-144.99;84.08;52301.34;5085559;28;20216;-62
2021/07/03 06:27:50;;;;;;;17.60;12.70;;;;;;;-144.99;83.83;52260.56;5081291;28;20215;-62
2021/07/03 06:30:17;;;;;;;15.07;13.87;;;;;;;-144.99;82.67;52301.34;5084131;28;20227;-63
2021/07/03 06:32:45;;;;;;;10.10;9.10;;;;;;;-144.99;80.96;52299.31;5082693;28;20894;-60
2021/07/03 06:35:12;;;;;;;21.57;6.13;;;;;;;-144.99;80.78;52317.66;5082714;28;20207;-61
2021/07/03 06:37:38;;;;;;;13.37;6.40;;;;;;;-144.99;80.24;52301.34;5081019;28;20208;-61
2021/07/03 06:40:06;;;;;;;7.57;5.47;;;;;;;-144.99;80.37;52317.66;5080220;28;20234;-61
2021/07/03 06:42:33;;;;;;;12.33;6.67;;;;;;;-144.99;80.07;52293.19;5084884;28;20609;-61
2021/07/03 06:45:00;;;;;;;7.93;5.33;;;;;;;-144.99;80.11;52297.25;5083739;28;20216;-60
2021/07/03 06:47:27;;;;;;;7.20;6.03;;;;;;;-144.99;80.19;52280.97;5085232;28;20212;-59
2021/07/03 06:49:55;;;;;;;6.67;4.20;;;;;;;-144.99;79.23;52285.03;5081375;28;20246;-60
2021/07/03 06:52:22;;;;;;;20.73;19.43;;;;;;;-144.99;79.17;52276.88;5085566;28;20200;-64
2021/07/03 06:54:50;;;;;;;15.80;14.37;;;;;;;-144.99;78.37;52264.66;5086586;28;20211;-65
2021/07/03 06:57:16;;;;;;;7.87;6.20;;;;;;;-144.99;77.52;52315.59;5085553;28;20208;-64
2021/07/03 06:59:43;;;;;;;8.07;6.23;;;;;;;-144.99;76.82;52297.25;5085621;28;20234;-65
2021/07/03 07:02:10;;;;;;;13.17;12.07;;;;;;;-144.99;76.68;52293.19;5081991;28;20205;-64
2021/07/03 07:04:36;;;;;;;15.87;14.40;;;;;;;-144.99;76.30;52285.03;5084159;28;20208;-63
2021/07/03 07:07:04;;;;;;;12.47;11.67;;;;;;;-144.99;76.53;52291.16;5081809;28;20204;-63
2021/07/03 07:09:31;;;;;;;13.00;11.30;;;;;;;-144.99;76.50;52301.34;5079733;28;20235;-63
2021/07/03 07:11:58;;;;;;;13.80;12.80;;;;;;;-144.99;76.71;52268.72;5086092;28;20203;-62
2021/07/03 07:14:25;;;;;;;21.83;20.60;;;;;;;-144.99;76.63;52264.66;5086013;28;20216;-62
2021/07/03 07:16:52;;;;;;;22.20;20.90;;;;;;;-144.99;76.32;52264.66;5085343;28;20674;-62
2021/07/03 07:19:19;;;;;;;19.40;18.03;;;;;;;-144.99;75.59;52272.81;5082411;28;20678;-62
2021/07/03 07:21:46;;;;;;;8.57;7.87;;;;;;;-144.99;75.63;52276.88;5084500;28;20208;-62
2021/07/03 07:24:14;;;;;;;13.80;12.80;;;;;;;-144.99;74.93;52305.41;5077854;28;20205;-61
2021/07/03 07:26:40;;;;;;;16.47;15.27;;;;;;;-144.99;73.95;52285.03;5083982;28;20208;-62
2021/07/03 07:29:07;;;;;;;12.83;11.70;;;;;;;-144.99;72.44;52276.88;5082478;28;20221;-63
2021/07/03 07:31:34;;;;;;;4.17;3.20;;;;;;;-144.99;72.58;52258.53;5084723;28;20203;-63
2021/07/03 07:34:00;;;;;;;9.47;5.40;;;;;;;-144.99;72.43;52301.34;5080926;28;20201;-63
2021/07/03 07:36:27;;;;;;;6.10;3.97;;;;;;;-144.99;72.76;52280.97;5081881;28;20215;-63
2021/07/03 07:38:54;;;;;;;8.50;5.57;;;;;;;-144.99;73.36;52285.03;5085122;28;20261;-63
2021/07/03 07:41:21;;;;;;;11.57;10.60;;;;;;;-144.99;73.86;52264.66;5082062;28;20204;-62
2021/07/03 07:43:48;;;;;;;10.70;9.80;;;;;;;-144.99;73.79;52248.34;5083821;28;20718;-63
2021/07/03 07:46:15;;;;;;;13.53;12.43;;;;;;;-144.99;73.04;52268.72;5083282;28;20213;-63
2021/07/03 07:48:41;;;;;;;6.60;5.00;;;;;;;-144.99;72.33;52289.13;5080482;28;20228;-63
2021/07/03 07:51:08;;;;;;;9.37;8.63;;;;;;;-144.99;72.18;52301.34;5078115;28;20243;-62
2021/07/03 07:53:35;;;;;;;20.47;19.20;;;;;;;-144.99;72.36;52289.13;5083923;28;20366;-62
2021/07/03 07:56:02;;;;;;;16.93;16.03;;;;;;;-144.99;71.88;52264.66;5082593;28;20209;-62
2021/07/03 07:58:30;;;;;;;7.83;5.70;;;;;;;-144.99;71.72;52260.56;5086541;28;20212;-62
2021/07/03 08:00:56;;;;;;;6.90;6.30;;;;;;;-144.99;71.36;52325.81;5081462;28;20192;-63
2021/07/03 08:03:23;;;;;;;14.93;13.57;;;;;;;-144.99;70.85;52297.25;5086275;28;20241;-62
2021/07/03 08:05:50;;;;;;;9.63;8.63;;;;;;;-144.99;70.52;52276.88;5084459;28;20204;-62
2021/07/03 08:08:19;;;;;;;7.77;5.90;;;;;;;-144.99;69.89;52268.72;5085646;28;20220;-63
2021/07/03 08:10:45;;;;;;;3.97;3.10;;;;;;;-144.99;69.67;52287.06;5082512;28;20618;-63
2021/07/03 08:13:14;;;;;;;4.40;3.03;;;;;;;-144.99;69.04;52276.88;5083643;28;20210;-62
2021/07/03 08:15:44;;;;;;;7.47;3.20;;;;;;;-144.99;67.64;52260.56;5081353;28;20227;-62
2021/07/03 08:18:11;;;;;;;6.00;3.97;;;;;;;-144.99;68.11;52227.97;5083537;28;20542;-62
2021/07/03 08:20:37;;;;;;;4.13;3.63;;;;;;;-144.99;67.22;52285.03;5077103;28;20379;-62
2021/07/03 08:23:04;;;;;;;3.57;2.93;;;;;;;-144.99;65.19;52272.81;5075974;28;20215;-62
2021/07/03 08:25:30;;;;;;;5.47;2.97;;;;;;;-144.99;65.10;52280.97;5085521;28;20219;-62
2021/07/03 08:27:57;;;;;;;3.33;2.60;;;;;;;-144.99;63.87;52223.88;5083931;28;20203;-62
2021/07/03 08:30:24;;;;;;;3.87;2.50;;;;;;;-144.99;63.13;52280.97;5081226;28;20242;-61
2021/07/03 08:32:52;;;;;;;5.83;3.70;;;;;;;-144.99;62.62;52223.88;4380404;28;10000738;-62
2021/07/03 08:35:19;;;;;;;3.17;2.27;;;;;;;-144.99;61.74;52183.13;5082698;28;20283;-62
2021/07/03 08:37:45;;;;;;;5.97;2.60;;;;;;;-144.99;61.30;52264.66;5070411;28;20219;-62
2021/07/03 08:40:14;;;;;;;5.80;2.73;;;;;;;-144.99;60.55;52219.81;5079326;28;20228;-62
2021/07/03 08:42:41;;;;;;;4.30;3.33;;;;;;;-144.99;59.72;52252.44;5072225;28;20220;-62
2021/07/03 08:45:09;;;;;;;3.83;2.70;;;;;;;-144.99;60.35;52227.97;5067590;28;20217;-62
2021/07/03 08:47:39;;;;;;;3.60;2.23;;;;;;;-144.99;59.65;52211.66;5080923;28;20235;-61
2021/07/03 08:50:09;;;;;;;4.30;2.70;;;;;;;-144.99;59.33;52260.56;5070668;28;20236;-61
2021/07/03 08:52:36;;;;;;;3.93;2.67;;;;;;;-144.99;59.53;52207.59;5073973;28;20216;-61
2021/07/03 08:55:14;;;;;;;3.93;3.37;;;;;;;-144.99;60.02;52256.50;5085364;28;20218;-61
2021/07/03 08:57:48;;;;;;;4.37;2.63;;;;;;;-144.99;59.83;52236.13;5077809;28;20222;-62
2021/07/03 09:00:17;;;;;;;3.23;2.60;;;;;;;-144.99;60.78;52240.19;5070173;28;20237;-63
2021/07/03 09:02:45;;;;;;;4.63;2.97;;;;;;;-144.99;60.86;52264.66;5068914;28;20212;-62
2021/07/03 09:05:22;;;;;;;4.47;3.23;;;;;;;-144.99;61.54;52242.22;5089195;28;20733;-62
2021/07/03 09:07:50;;;;;;;3.77;2.57;;;;;;;-144.99;61.59;52272.81;5074128;28;20231;-62
2021/07/03 09:10:21;;;;;;;4.63;3.17;;;;;;;-144.99;61.36;52252.44;5068431;28;20266;-62
2021/07/03 09:12:50;;;;;;;4.03;2.87;;;;;;;-144.99;61.74;52240.19;5070316;28;20204;-62
2021/07/03 09:15:18;;;;;;;5.70;3.10;;;;;;;-144.99;63.67;52280.97;5085967;28;20216;-62
2021/07/03 09:17:47;;;;;;;5.87;3.70;;;;;;;-144.99;64.82;52260.56;5082251;28;20266;-64
2021/07/03 09:20:13;;;;;;;5.30;3.33;;;;;;;-144.99;64.72;52242.22;5071650;28;20241;-63
2021/07/03 09:22:41;;;;;;;3.47;2.27;;;;;;;-144.99;64.39;52227.97;5088137;28;20219;-62
2021/07/03 09:25:17;;;;;;;4.67;3.20;;;;;;;-144.99;63.82;52297.25;5076660;28;20206;-63
2021/07/03 09:27:43;;;;;;;7.53;6.83;;;;;;;-144.99;64.57;52266.69;5068433;28;20685;-63
2021/07/03 09:30:11;;;;;;;8.83;8.13;;;;;;;-144.99;64.10;52242.22;5068877;28;20566;-63
2021/07/03 09:32:38;;;;;;;8.60;7.87;;;;;;;-144.99;63.53;52246.31;5083784;28;20204;-62
2021/07/03 09:35:09;;;;;;;5.53;3.57;;;;;;;-144.99;61.57;52252.44;5089294;28;20200;-70
2021/07/03 09:37:36;;;;;;;4.93;2.33;;;;;;;-144.99;60.96;52223.88;5073229;28;20216;-71
2021/07/03 09:40:09;;;;;;;3.37;2.80;;;;;;;-144.99;60.24;52287.06;5080271;28;20636;-74
2021/07/03 09:42:37;;;;;;;3.63;2.60;;;;;;;-144.99;60.21;52252.44;5082584;28;20206;-69
2021/07/03 09:45:04;;;;;;;4.00;2.20;;;;;;;-144.99;60.22;52227.97;5081789;28;20207;-70
2021/07/03 09:47:34;;;;;;;4.97;4.03;;;;;;;-144.99;60.24;52291.16;5083791;28;20203;-70
2021/07/03 09:50:02;;;;;;;3.17;2.63;;;;;;;-144.99;60.05;52272.81;5086540;28;20222;-71
2021/07/03 09:52:29;;;;;;;5.63;3.93;;;;;;;-144.99;59.35;52244.28;5084257;28;20207;-71
2021/07/03 09:54:57;;;;;;;2.93;2.20;;;;;;;-144.99;59.73;52270.78;5083532;28;20750;-64
2021/07/03 09:57:25;;;;;;;4.93;2.00;;;;;;;-144.99;58.96;52250.38;5085406;28;20208;-68
2021/07/03 09:59:52;;;;;;;4.90;2.50;;;;;;;-144.99;58.86;52248.34;5085700;28;20715;-67
2021/07/03 10:02:18;;;;;;;3.30;2.63;;;;;;;-144.99;59.28;52232.03;5074648;28;20204;-68
2021/07/03 10:04:45;;;;;;;4.67;3.77;;;;;;;-144.99;58.84;52236.13;5079660;28;20217;-68
2021/07/03 10:07:17;;;;;;;3.73;2.73;;;;;;;-144.99;58.77;52258.53;5067938;28;20572;-68
2021/07/03 10:09:47;;;;;;;4.27;3.60;;;;;;;-144.99;58.83;52215.75;5066858;28;20237;-68
2021/07/03 10:12:17;;;;;;;5.70;2.93;;;;;;;-144.99;58.29;52248.34;5068385;28;20209;-68
2021/07/03 10:14:47;;;;;;;6.07;2.17;;;;;;;-144.99;57.39;52225.94;5068687;28;20217;-67
2021/07/03 10:17:23;;;;;;;7.60;3.03;;;;;;;-144.99;57.24;52170.91;5075705;28;20213;-68
2021/07/03 10:19:50;;;;;;;2.13;1.83;;;;;;;-144.99;55.39;52240.19;5073539;28;20236;-69
2021/07/03 10:22:18;;;;;;;4.43;2.67;;;;;;;-144.99;56.42;52258.53;5088855;28;20255;-68
2021/07/03 10:24:48;;;;;;;8.53;3.70;;;;;;;-144.99;56.00;52276.88;5077025;28;20666;-68
2021/07/03 10:27:21;;;;;;;7.27;3.10;;;;;;;-144.99;55.86;52170.91;5075521;28;20235;-68
2021/07/03 10:29:49;;;;;;;3.43;2.97;;;;;;;-144.99;55.29;52219.81;5086658;28;20251;-69
2021/07/03 10:32:21;;;;;;;5.70;3.47;;;;;;;-144.99;54.61;52244.28;5078667;28;20205;-68
2021/07/03 10:34:48;;;;;;;3.87;3.00;;;;;;;-144.99;54.14;52183.13;5084794;28;20211;-68
2021/07/03 10:37:20;;;;;;;2.90;2.00;;;;;;;-144.99;54.27;52211.66;5067213;28;20246;-67
2021/07/03 10:39:46;;;;;;;4.07;2.53;;;;;;;-144.99;54.21;52172.94;5072186;28;20485;-67
2021/07/03 10:42:13;;;;;;;4.63;2.93;;;;;;;-144.99;53.85;52187.19;5066832;28;20211;-68
2021/07/03 10:44:42;;;;;;;4.73;4.27;;;;;;;-144.99;53.42;52211.66;5067742;28;20214;-68
2021/07/03 10:47:12;;;;;;;4.83;3.80;;;;;;;-144.99;53.59;52215.75;5066650;28;20215;-68
2021/07/03 10:49:40;;;;;;;3.97;2.93;;;;;;;-144.99;53.62;52162.75;5067184;28;20611;-68
2021/07/03 10:52:12;;;;;;;4.03;2.07;;;;;;;-144.99;52.77;52154.59;5078960;28;20301;-68
2021/07/03 10:54:39;;;;;;;6.60;4.60;;;;;;;-144.99;51.65;52187.19;5075287;28;20257;-68
2021/07/03 10:57:08;;;;;;;4.30;2.90;;;;;;;-144.99;51.61;52121.97;5073195;28;20234;-69
2021/07/03 10:59:37;;;;;;;3.70;2.77;;;;;;;-144.99;51.60;52158.66;5076974;28;20231;-69
2021/07/03 11:02:08;;;;;;;4.17;3.10;;;;;;;-144.99;51.04;52203.50;5066540;28;20226;-69
2021/07/03 11:04:45;;;;;;;6.60;6.00;;;;;;;-144.99;51.82;52191.28;5067269;28;20225;-69
2021/07/03 11:07:13;;;;;;;24.03;22.93;;;;;;;-144.99;51.50;52121.97;5075059;28;20707;-69
2021/07/03 11:09:40;;;;;;;17.10;16.13;;;;;;;-144.99;50.72;52113.84;5075802;28;20242;-67